Mexico V — XCKR — position and weather

sailwx.info

Track history (hours):
 
Tides and Currents Weather Stations Pressure Air Temp Water Temp Dewpoint Dewpoint Depression Visibility Wind Speed Wind Dir Waves Ship Positions

Mexico V

Last reported at 2015-Mar-02 16:33 UTC. Time now 2015-Mar-02 16:38 UTC.
Position N 20°31' W 086°57'.

Length 40 m; draft 1.5 m.

Type: Ship. MMSI: 345110005.

Date/timePositionNaut miles runAvg speedWind from/ knotsBaromVisibWave heightAir tempDewpointWater temp
2015-Mar-02 16:33N 20°31' W 086°57'0 0.0
2015-Mar-02 15:33N 20°31' W 086°57'0 0.0
2015-Mar-02 14:33N 20°31' W 086°57'1 0.7
2015-Mar-02 13:33N 20°31' W 086°58'1 0.8
2015-Mar-02 12:11N 20°32' W 086°58'2 2.5
2015-Mar-02 11:29N 20°31' W 086°57'0 0.0
2015-Mar-02 00:33N 20°31' W 086°57'0 0.1
2015-Mar-01 23:34N 20°31' W 086°57'3 2.0
2015-Mar-01 22:13N 20°33' W 086°59'3 4.1
2015-Mar-01 21:33N 20°31' W 086°57'0 0.1
2015-Mar-01 20:33N 20°31' W 086°57'0 0.0
2015-Mar-01 19:33N 20°31' W 086°57'0 0.1
2015-Mar-01 18:34N 20°31' W 086°57'0 0.0
2015-Feb-28 23:07N 20°31' W 086°57'0 0.2
2015-Feb-28 22:34N 20°31' W 086°57'3 2.2
2015-Feb-28 21:13N 20°33' W 086°59'3 4.2
2015-Feb-28 20:31N 20°31' W 086°57'0 0.0
2015-Feb-28 19:32N 20°31' W 086°57'3 0.6
2015-Feb-28 14:13N 20°33' W 086°59'3 4.6
2015-Feb-28 13:33N 20°31' W 086°57'3 1.9
2015-Feb-28 12:14N 20°32' W 086°59'3 3.7
2015-Feb-28 11:32N 20°31' W 086°57'0 0.0
2015-Feb-28 00:33N 20°31' W 086°57'0 0.4
2015-Feb-27 23:33N 20°31' W 086°57'3 2.2
2015-Feb-27 22:15N 20°33' W 086°59'3 4.3
2015-Feb-27 21:31N 20°31' W 086°57'3 3.0
2015-Feb-27 20:34N 20°33' W 086°59'0 0.1
2015-Feb-27 15:14N 20°33' W 086°59'3 4.3
2015-Feb-27 14:33N 20°31' W 086°57'2 1.4
2015-Feb-27 13:11N 20°32' W 086°59'2 3.1
2015-Feb-27 12:33N 20°31' W 086°57'2 1.8
2015-Feb-27 11:14N 20°32' W 086°59'2 0.3
2015-Feb-27 03:34N 20°31' W 086°57'2 1.7
2015-Feb-27 02:11N 20°32' W 086°59'2 3.7
2015-Feb-27 01:33N 20°31' W 086°57'0 0.1
2015-Feb-27 00:33N 20°31' W 086°57'0 0.0
2015-Feb-26 23:33N 20°31' W 086°57'0 0.3
2015-Feb-26 22:34N 20°31' W 086°57'0 0.2
2015-Feb-26 20:33N 20°31' W 086°57'0 0.0
2015-Feb-26 19:34N 20°31' W 086°57'3 2.2
2015-Feb-26 18:12N 20°33' W 086°59'2 3.5
2015-Feb-26 17:33N 20°31' W 086°58'1 0.2
2015-Feb-26 12:33N 20°30' W 086°57'0 0.3
2015-Feb-26 11:29N 20°31' W 086°57'0 0.0
2015-Feb-26 00:32N 20°31' W 086°57'3 2.0
2015-Feb-25 23:09N 20°33' W 086°59'2 3.6
2015-Feb-25 22:34N 20°32' W 086°57'1 1.4
2015-Feb-25 21:34N 20°31' W 086°57'2 2.2
2015-Feb-25 20:34N 20°29' W 086°58'4 3.3
2015-Feb-25 19:12N 20°33' W 086°59'3 5.0
2015-Feb-25 18:34N 20°31' W 086°57'3 2.1
2015-Feb-25 17:13N 20°33' W 086°59'1 1.8
2015-Feb-25 16:33N 20°32' W 086°58'3 0.8
2015-Feb-25 12:32N 20°29' W 086°58'1 0.7
2015-Feb-25 11:34N 20°30' W 086°58'2 0.3
2015-Feb-25 03:33N 20°32' W 086°58'2 1.2
2015-Feb-25 02:13N 20°33' W 086°59'3 3.4
2015-Feb-25 01:26N 20°31' W 086°57'0 0.1
2015-Feb-25 00:33N 20°31' W 086°57'0 0.0
2015-Feb-24 23:33N 20°31' W 086°57'0 0.0
2015-Feb-24 22:33N 20°31' W 086°57'0 0.0
2015-Feb-24 21:33N 20°31' W 086°57'0 0.0
2015-Feb-24 20:33N 20°31' W 086°57'0 0.0
2015-Feb-24 19:33N 20°31' W 086°57'2 1.7
2015-Feb-24 18:10N 20°32' W 086°59'2 2.6
2015-Feb-24 17:33N 20°31' W 086°58'1 1.0
2015-Feb-24 16:13N 20°32' W 086°59'2 3.4
2015-Feb-24 15:33N 20°31' W 086°57'0 0.1
2015-Feb-24 14:33N 20°31' W 086°57'0 0.1
2015-Feb-24 13:34N 20°31' W 086°57'3 2.7
2015-Feb-24 12:16N 20°33' W 086°59'4 4.4
2015-Feb-24 11:28N 20°31' W 086°57'1 0.1
2015-Feb-24 01:33N 20°31' W 086°58'2 1.2
2015-Feb-24 00:14N 20°32' W 086°59'3 3.9
2015-Feb-23 23:32N 20°31' W 086°57'0 0.0
2015-Feb-23 22:33N 20°31' W 086°57'0 0.3
2015-Feb-23 21:33N 20°30' W 086°57'2 1.6
2015-Feb-23 20:05N 20°32' W 086°59'2 4.6
2015-Feb-23 19:33N 20°31' W 086°57'0 0.0
2015-Feb-23 18:33N 20°31' W 086°57'3 2.0
2015-Feb-23 17:12N 20°33' W 086°59'3 4.0
2015-Feb-23 16:33N 20°31' W 086°57'2 1.7
2015-Feb-23 15:11N 20°32' W 086°59'2 3.4
2015-Feb-23 14:34N 20°31' W 086°57'2 1.8
2015-Feb-23 13:21N 20°32' W 086°59'2 2.9
2015-Feb-23 12:32N 20°30' W 086°57'0 0.3
2015-Feb-23 11:33N 20°31' W 086°57'0 0.0
2015-Feb-23 03:33N 20°31' W 086°57'2 1.7
2015-Feb-23 02:14N 20°32' W 086°59'3 3.7
2015-Feb-23 01:32N 20°31' W 086°57'0 0.1
2015-Feb-23 00:29N 20°31' W 086°57'0 0.0
2015-Feb-22 23:29N 20°31' W 086°57'0 0.0
2015-Feb-22 22:29N 20°31' W 086°57'0 0.0
2015-Feb-22 21:29N 20°31' W 086°57'0 0.0
2015-Feb-22 20:29N 20°31' W 086°57'1 0.9
2015-Feb-22 19:34N 20°31' W 086°58'1 1.1
2015-Feb-22 18:12N 20°32' W 086°59'1 1.6
2015-Feb-22 17:33N 20°32' W 086°58'2 1.4
2015-Feb-22 16:15N 20°33' W 086°59'3 4.2
2015-Feb-22 15:32N 20°31' W 086°57'0 0.1
2015-Feb-22 14:32N 20°31' W 086°57'0 0.3
2015-Feb-22 13:34N 20°31' W 086°57'3 1.9
2015-Feb-22 12:12N 20°33' W 086°59'3 4.2
2015-Feb-22 11:34N 20°31' W 086°57'0 0.0
2015-Feb-22 02:03N 20°31' W 086°57'1 1.6
2015-Feb-22 01:33N 20°31' W 086°58'2 1.3
2015-Feb-22 00:12N 20°32' W 086°59'2 2.9
2015-Feb-21 23:28N 20°31' W 086°57'0 0.4
2015-Feb-21 22:31N 20°31' W 086°57'0 0.0
2015-Feb-21 21:33N 20°31' W 086°57'0 0.0
2015-Feb-21 20:33N 20°31' W 086°57'0 0.0
2015-Feb-21 19:33N 20°31' W 086°57'0 0.2
2015-Feb-21 18:33N 20°31' W 086°57'2 1.3
2015-Feb-21 17:12N 20°32' W 086°58'2 2.7
2015-Feb-21 16:30N 20°31' W 086°57'0 0.1
2015-Feb-21 15:32N 20°31' W 086°57'0 0.5
2015-Feb-21 14:33N 20°31' W 086°57'2 1.8
2015-Feb-21 13:13N 20°33' W 086°59'3 4.3
2015-Feb-21 12:33N 20°31' W 086°57'2 1.8
2015-Feb-21 11:13N 20°32' W 086°59'2 3.4
2015-Feb-21 10:30N 20°31' W 086°57'1 0.2
2015-Feb-21 03:33N 20°31' W 086°58'1 1.0
2015-Feb-21 02:15N 20°32' W 086°59'2 2.9
2015-Feb-21 01:30N 20°31' W 086°57'0 0.2
2015-Feb-21 00:31N 20°31' W 086°57'0 0.0
2015-Feb-20 23:33N 20°31' W 086°57'0 0.0
2015-Feb-20 22:29N 20°31' W 086°57'2 2.5
2015-Feb-20 21:33N 20°30' W 086°59'3 1.9
2015-Feb-20 20:08N 20°32' W 086°59'0 0.2
2015-Feb-20 18:13N 20°33' W 086°59'0 0.4
2015-Feb-20 17:33N 20°32' W 086°59'  
Track history (hours):
 
Tides and Currents Weather Stations Pressure Air Temp Water Temp Dewpoint Dewpoint Depression Visibility Wind Speed Wind Dir Waves Ship Positions

Mexico V

Last reported at 2015-Mar-02 16:33 UTC. Time now 2015-Mar-02 16:38 UTC.
Position N 20°31' W 086°57'.

Length 40 m; draft 1.5 m.

Type: Ship. MMSI: 345110005.

Date/timePositionNaut miles runAvg speedWind from/ knotsBaromVisibWave heightAir tempDewpointWater temp
2015-Mar-02 16:33N 20°31' W 086°57'0 0.0
2015-Mar-02 15:33N 20°31' W 086°57'0 0.0
2015-Mar-02 14:33N 20°31' W 086°57'1 0.7
2015-Mar-02 13:33N 20°31' W 086°58'1 0.8
2015-Mar-02 12:11N 20°32' W 086°58'2 2.5
2015-Mar-02 11:29N 20°31' W 086°57'0 0.0
2015-Mar-02 00:33N 20°31' W 086°57'0 0.1
2015-Mar-01 23:34N 20°31' W 086°57'3 2.0
2015-Mar-01 22:13N 20°33' W 086°59'3 4.1
2015-Mar-01 21:33N 20°31' W 086°57'0 0.1
2015-Mar-01 20:33N 20°31' W 086°57'0 0.0
2015-Mar-01 19:33N 20°31' W 086°57'0 0.1
2015-Mar-01 18:34N 20°31' W 086°57'0 0.0
2015-Feb-28 23:07N 20°31' W 086°57'0 0.2
2015-Feb-28 22:34N 20°31' W 086°57'3 2.2
2015-Feb-28 21:13N 20°33' W 086°59'3 4.2
2015-Feb-28 20:31N 20°31' W 086°57'0 0.0
2015-Feb-28 19:32N 20°31' W 086°57'3 0.6
2015-Feb-28 14:13N 20°33' W 086°59'3 4.6
2015-Feb-28 13:33N 20°31' W 086°57'3 1.9
2015-Feb-28 12:14N 20°32' W 086°59'3 3.7
2015-Feb-28 11:32N 20°31' W 086°57'0 0.0
2015-Feb-28 00:33N 20°31' W 086°57'0 0.4
2015-Feb-27 23:33N 20°31' W 086°57'3 2.2
2015-Feb-27 22:15N 20°33' W 086°59'3 4.3
2015-Feb-27 21:31N 20°31' W 086°57'3 3.0
2015-Feb-27 20:34N 20°33' W 086°59'0 0.1
2015-Feb-27 15:14N 20°33' W 086°59'3 4.3
2015-Feb-27 14:33N 20°31' W 086°57'2 1.4
2015-Feb-27 13:11N 20°32' W 086°59'2 3.1
2015-Feb-27 12:33N 20°31' W 086°57'2 1.8
2015-Feb-27 11:14N 20°32' W 086°59'2 0.3
2015-Feb-27 03:34N 20°31' W 086°57'2 1.7
2015-Feb-27 02:11N 20°32' W 086°59'2 3.7
2015-Feb-27 01:33N 20°31' W 086°57'0 0.1
2015-Feb-27 00:33N 20°31' W 086°57'0 0.0
2015-Feb-26 23:33N 20°31' W 086°57'0 0.3
2015-Feb-26 22:34N 20°31' W 086°57'0 0.2
2015-Feb-26 20:33N 20°31' W 086°57'0 0.0
2015-Feb-26 19:34N 20°31' W 086°57'3 2.2
2015-Feb-26 18:12N 20°33' W 086°59'2 3.5
2015-Feb-26 17:33N 20°31' W 086°58'1 0.2
2015-Feb-26 12:33N 20°30' W 086°57'0 0.3
2015-Feb-26 11:29N 20°31' W 086°57'0 0.0
2015-Feb-26 00:32N 20°31' W 086°57'3 2.0
2015-Feb-25 23:09N 20°33' W 086°59'2 3.6
2015-Feb-25 22:34N 20°32' W 086°57'1 1.4
2015-Feb-25 21:34N 20°31' W 086°57'2 2.2
2015-Feb-25 20:34N 20°29' W 086°58'4 3.3
2015-Feb-25 19:12N 20°33' W 086°59'3 5.0
2015-Feb-25 18:34N 20°31' W 086°57'3 2.1
2015-Feb-25 17:13N 20°33' W 086°59'1 1.8
2015-Feb-25 16:33N 20°32' W 086°58'3 0.8
2015-Feb-25 12:32N 20°29' W 086°58'1 0.7
2015-Feb-25 11:34N 20°30' W 086°58'2 0.3
2015-Feb-25 03:33N 20°32' W 086°58'2 1.2
2015-Feb-25 02:13N 20°33' W 086°59'3 3.4
2015-Feb-25 01:26N 20°31' W 086°57'0 0.1
2015-Feb-25 00:33N 20°31' W 086°57'0 0.0
2015-Feb-24 23:33N 20°31' W 086°57'0 0.0
2015-Feb-24 22:33N 20°31' W 086°57'0 0.0
2015-Feb-24 21:33N 20°31' W 086°57'0 0.0
2015-Feb-24 20:33N 20°31' W 086°57'0 0.0
2015-Feb-24 19:33N 20°31' W 086°57'2 1.7
2015-Feb-24 18:10N 20°32' W 086°59'2 2.6
2015-Feb-24 17:33N 20°31' W 086°58'1 1.0
2015-Feb-24 16:13N 20°32' W 086°59'2 3.4
2015-Feb-24 15:33N 20°31' W 086°57'0 0.1
2015-Feb-24 14:33N 20°31' W 086°57'0 0.1
2015-Feb-24 13:34N 20°31' W 086°57'3 2.7
2015-Feb-24 12:16N 20°33' W 086°59'4 4.4
2015-Feb-24 11:28N 20°31' W 086°57'1 0.1
2015-Feb-24 01:33N 20°31' W 086°58'2 1.2
2015-Feb-24 00:14N 20°32' W 086°59'3 3.9
2015-Feb-23 23:32N 20°31' W 086°57'0 0.0
2015-Feb-23 22:33N 20°31' W 086°57'0 0.3
2015-Feb-23 21:33N 20°30' W 086°57'2 1.6
2015-Feb-23 20:05N 20°32' W 086°59'2 4.6
2015-Feb-23 19:33N 20°31' W 086°57'0 0.0
2015-Feb-23 18:33N 20°31' W 086°57'3 2.0
2015-Feb-23 17:12N 20°33' W 086°59'3 4.0
2015-Feb-23 16:33N 20°31' W 086°57'2 1.7
2015-Feb-23 15:11N 20°32' W 086°59'2 3.4
2015-Feb-23 14:34N 20°31' W 086°57'2 1.8
2015-Feb-23 13:21N 20°32' W 086°59'2 2.9
2015-Feb-23 12:32N 20°30' W 086°57'0 0.3
2015-Feb-23 11:33N 20°31' W 086°57'0 0.0
2015-Feb-23 03:33N 20°31' W 086°57'2 1.7
2015-Feb-23 02:14N 20°32' W 086°59'3 3.7
2015-Feb-23 01:32N 20°31' W 086°57'0 0.1
2015-Feb-23 00:29N 20°31' W 086°57'0 0.0
2015-Feb-22 23:29N 20°31' W 086°57'0 0.0
2015-Feb-22 22:29N 20°31' W 086°57'0 0.0
2015-Feb-22 21:29N 20°31' W 086°57'0 0.0
2015-Feb-22 20:29N 20°31' W 086°57'1 0.9
2015-Feb-22 19:34N 20°31' W 086°58'1 1.1
2015-Feb-22 18:12N 20°32' W 086°59'1 1.6
2015-Feb-22 17:33N 20°32' W 086°58'2 1.4
2015-Feb-22 16:15N 20°33' W 086°59'3 4.2
2015-Feb-22 15:32N 20°31' W 086°57'0 0.1
2015-Feb-22 14:32N 20°31' W 086°57'0 0.3
2015-Feb-22 13:34N 20°31' W 086°57'3 1.9
2015-Feb-22 12:12N 20°33' W 086°59'3 4.2
2015-Feb-22 11:34N 20°31' W 086°57'0 0.0
2015-Feb-22 02:03N 20°31' W 086°57'1 1.6
2015-Feb-22 01:33N 20°31' W 086°58'2 1.3
2015-Feb-22 00:12N 20°32' W 086°59'2 2.9
2015-Feb-21 23:28N 20°31' W 086°57'0 0.4
2015-Feb-21 22:31N 20°31' W 086°57'0 0.0
2015-Feb-21 21:33N 20°31' W 086°57'0 0.0
2015-Feb-21 20:33N 20°31' W 086°57'0 0.0
2015-Feb-21 19:33N 20°31' W 086°57'0 0.2
2015-Feb-21 18:33N 20°31' W 086°57'2 1.3
2015-Feb-21 17:12N 20°32' W 086°58'2 2.7
2015-Feb-21 16:30N 20°31' W 086°57'0 0.1
2015-Feb-21 15:32N 20°31' W 086°57'0 0.5
2015-Feb-21 14:33N 20°31' W 086°57'2 1.8
2015-Feb-21 13:13N 20°33' W 086°59'3 4.3
2015-Feb-21 12:33N 20°31' W 086°57'2 1.8
2015-Feb-21 11:13N 20°32' W 086°59'2 3.4
2015-Feb-21 10:30N 20°31' W 086°57'1 0.2
2015-Feb-21 03:33N 20°31' W 086°58'1 1.0
2015-Feb-21 02:15N 20°32' W 086°59'2 2.9
2015-Feb-21 01:30N 20°31' W 086°57'0 0.2
2015-Feb-21 00:31N 20°31' W 086°57'0 0.0
2015-Feb-20 23:33N 20°31' W 086°57'0 0.0
2015-Feb-20 22:29N 20°31' W 086°57'2 2.5
2015-Feb-20 21:33N 20°30' W 086°59'3 1.9
2015-Feb-20 20:08N 20°32' W 086°59'0 0.2
2015-Feb-20 18:13N 20°33' W 086°59'0 0.4
2015-Feb-20 17:33N 20°32' W 086°59'  

Dump ship's entire track history